Time;durP1;ratioP1;P1;durP2;ratioP2;P2;SDS_P1;SDS_P2;PMS_P1;PMS_P2;Temp;Humidity;BMP_temperature;BMP_pressure;BME280_temperature;BME280_humidity;BME280_pressure;Samples;Min_cycle;Max_cycle;Signal;HPM_P1;HPM_P2
2022/12/06 00:00:42;;;;;;;0.20;0.20;;;1.10;99.90;;;;;;5068195;28;20038;-80
2022/12/06 00:03:08;;;;;;;0.17;0.17;;;1.10;99.90;;;;;;5068738;28;20020;-79
2022/12/06 00:05:34;;;;;;;0.20;0.20;;;1.10;99.90;;;;;;5067595;28;20060;-81
2022/12/06 00:07:59;;;;;;;0.10;0.10;;;1.10;99.90;;;;;;5067996;28;20140;-80
2022/12/06 00:10:25;;;;;;;0.57;0.57;;;1.00;99.90;;;;;;5068540;28;20040;-80
2022/12/06 00:12:51;;;;;;;0.10;0.10;;;1.00;99.90;;;;;;5069001;28;20747;-80
2022/12/06 00:15:17;;;;;;;0.20;0.20;;;0.90;99.90;;;;;;5068597;28;20028;-80
2022/12/06 00:17:43;;;;;;;0.10;0.10;;;0.80;99.90;;;;;;5067833;28;20031;-80
2022/12/06 00:20:09;;;;;;;0.10;0.10;;;0.80;99.90;;;;;;5049919;28;20033;-79
2022/12/06 00:22:34;;;;;;;0.50;0.50;;;0.70;99.90;;;;;;5068235;28;20025;-79
2022/12/06 00:25:00;;;;;;;0.90;0.82;;;0.70;99.90;;;;;;5050089;28;20474;-80
2022/12/06 00:27:26;;;;;;;0.10;0.10;;;0.80;99.90;;;;;;5068223;28;20663;-81
2022/12/06 00:29:52;;;;;;;3.10;1.10;;;0.80;99.90;;;;;;5068378;28;20498;-81
2022/12/06 00:32:17;;;;;;;1.45;1.10;;;0.60;99.90;;;;;;5043846;28;20448;-83
2022/12/06 00:34:43;;;;;;;0.10;0.10;;;0.60;99.90;;;;;;5068430;28;20054;-82
2022/12/06 00:37:09;;;;;;;0.10;0.10;;;0.70;99.90;;;;;;5069535;28;20145;-82
2022/12/06 00:39:35;;;;;;;0.20;0.20;;;0.80;99.90;;;;;;5068708;28;20052;-81
2022/12/06 00:42:00;;;;;;;0.10;0.10;;;0.70;99.90;;;;;;5068512;28;20028;-81
2022/12/06 00:44:26;;;;;;;0.10;0.10;;;0.60;99.90;;;;;;5050105;28;20087;-81
2022/12/06 00:46:52;;;;;;;0.20;0.20;;;0.60;99.90;;;;;;5050596;28;20096;-81
2022/12/06 00:49:17;;;;;;;0.20;0.20;;;0.60;99.90;;;;;;5068354;28;20056;-80
2022/12/06 00:51:43;;;;;;;0.30;0.30;;;0.60;99.90;;;;;;5068309;28;20055;-81
2022/12/06 00:54:13;;;;;;;0.20;0.20;;;0.50;99.90;;;;;;5068060;28;20119;-81
2022/12/06 00:56:38;;;;;;;0.10;0.10;;;0.50;99.90;;;;;;5049770;28;20423;-81
2022/12/06 00:59:05;;;;;;;0.10;0.10;;;0.40;99.90;;;;;;5067869;28;20044;-80
2022/12/06 01:01:32;;;;;;;0.10;0.10;;;0.40;99.90;;;;;;5067597;28;20046;-80
2022/12/06 01:03:59;;;;;;;;;;;0.40;99.90;;;;;;5068544;28;20060;-80
2022/12/06 01:06:28;;;;;;;0.10;0.10;;;0.40;99.90;;;;;;5068017;28;20549;-81
2022/12/06 01:08:55;;;;;;;0.20;0.20;;;0.40;99.90;;;;;;5049602;28;20116;-79
2022/12/06 01:11:21;;;;;;;;;;;0.40;99.90;;;;;;5049813;28;20047;-81
2022/12/06 01:13:47;;;;;;;0.57;0.57;;;0.40;99.90;;;;;;5049407;28;20380;-81
2022/12/06 01:16:18;;;;;;;0.13;0.13;;;0.40;99.90;;;;;;5051127;28;20064;-79
2022/12/06 01:18:45;;;;;;;0.10;0.10;;;0.40;99.90;;;;;;5071713;28;20273;-78
2022/12/06 01:21:16;;;;;;;0.10;0.10;;;0.30;99.90;;;;;;5078604;28;20025;-78
2022/12/06 01:23:43;;;;;;;0.00;0.00;;;0.40;99.90;;;;;;5052235;28;20059;-77
2022/12/06 01:26:21;;;;;;;0.10;0.10;;;0.40;99.90;;;;;;5053866;28;20032;-79
2022/12/06 01:28:47;;;;;;;0.10;0.10;;;0.40;99.90;;;;;;5059954;28;20036;-81
2022/12/06 01:31:13;;;;;;;0.10;0.10;;;0.40;99.90;;;;;;5071223;28;20063;-81
2022/12/06 01:33:39;;;;;;;0.20;0.20;;;0.50;99.90;;;;;;5071413;28;20035;-81
2022/12/06 01:36:05;;;;;;;0.10;0.10;;;0.50;99.90;;;;;;5053460;28;20037;-82
2022/12/06 01:38:31;;;;;;;0.43;0.43;;;0.40;99.90;;;;;;5053693;28;20498;-81
2022/12/06 01:40:56;;;;;;;0.10;0.10;;;0.30;99.90;;;;;;5070850;28;20035;-82
2022/12/06 01:43:42;;;;;;;0.55;0.55;;;0.30;99.90;;;;;;5070893;28;20511;-81
2022/12/06 01:46:26;;;;;;;0.10;0.10;;;0.40;99.90;;;;;;5051311;28;20070;-81
2022/12/06 01:49:05;;;;;;;0.10;0.10;;;0.40;99.90;;;;;;5074485;28;20055;-81
2022/12/06 01:51:31;;;;;;;0.45;0.45;;;0.30;99.90;;;;;;5065255;28;20020;-78
2022/12/06 01:54:00;;;;;;;0.10;0.10;;;0.30;99.90;;;;;;5071623;28;20131;-80
2022/12/06 01:56:26;;;;;;;0.10;0.10;;;0.30;99.90;;;;;;5052895;28;20397;-79
2022/12/06 01:58:55;;;;;;;0.10;0.10;;;0.30;99.90;;;;;;5071329;28;20111;-79
2022/12/06 02:01:21;;;;;;;0.40;0.40;;;0.30;99.90;;;;;;5063890;28;20028;-78
2022/12/06 02:03:47;;;;;;;0.82;0.70;;;0.30;99.90;;;;;;5070236;28;20036;-78
2022/12/06 02:06:15;;;;;;;0.85;0.85;;;0.40;99.90;;;;;;5070732;28;20057;-78
2022/12/06 02:08:43;;;;;;;0.30;0.30;;;0.30;99.90;;;;;;5070683;28;20570;-78
2022/12/06 02:11:08;;;;;;;0.10;0.10;;;0.30;99.90;;;;;;5069638;28;20094;-78
2022/12/06 02:13:35;;;;;;;0.00;0.00;;;0.30;99.90;;;;;;5070522;28;20574;-78
2022/12/06 02:16:21;;;;;;;0.10;0.10;;;0.10;99.90;;;;;;5053029;28;20486;-78
2022/12/06 02:19:12;;;;;;;0.20;0.20;;;0.20;99.90;;;;;;5071304;28;20035;-78
2022/12/06 02:21:51;;;;;;;0.20;0.20;;;0.20;99.90;;;;;;5070237;28;20111;-77
2022/12/06 02:24:46;;;;;;;0.20;0.20;;;0.20;99.90;;;;;;5070288;28;20029;-77
2022/12/06 02:27:43;;;;;;;0.10;0.10;;;0.20;99.90;;;;;;5066097;28;20107;-77
2022/12/06 02:30:36;;;;;;;0.00;0.00;;;0.00;99.90;;;;;;5070774;28;20070;-77
2022/12/06 02:33:19;;;;;;;0.10;0.10;;;0.00;99.90;;;;;;5070664;28;20034;-77
2022/12/06 02:36:07;;;;;;;0.10;0.10;;;0.00;99.90;;;;;;5069971;28;20028;-77
2022/12/06 02:38:47;;;;;;;0.10;0.10;;;0.00;99.90;;;;;;5065303;28;20745;-77
2022/12/06 02:41:21;;;;;;;0.40;0.40;;;-0.10;99.90;;;;;;5066362;28;21533;-78
2022/12/06 02:43:53;;;;;;;0.05;0.05;;;-0.10;99.90;;;;;;5069524;28;20038;-79
2022/12/06 02:46:21;;;;;;;0.13;0.13;;;-0.10;99.90;;;;;;5067262;28;20091;-79
2022/12/06 02:48:51;;;;;;;0.10;0.10;;;-0.10;99.90;;;;;;5068249;28;20090;-79
2022/12/06 02:51:18;;;;;;;0.32;0.20;;;0.00;99.90;;;;;;5069062;28;20896;-78
2022/12/06 02:53:51;;;;;;;0.10;0.10;;;0.00;99.90;;;;;;5069403;28;20056;-78
2022/12/06 02:56:18;;;;;;;0.13;0.13;;;0.00;99.90;;;;;;5064773;28;20021;-78
2022/12/06 02:58:43;;;;;;;0.10;0.10;;;0.00;99.90;;;;;;5068956;28;20025;-79
2022/12/06 03:01:19;;;;;;;0.10;0.10;;;-0.10;99.90;;;;;;5067862;28;20039;-78
2022/12/06 03:04:11;;;;;;;0.22;0.22;;;0.00;99.90;;;;;;5068681;28;20025;-80
2022/12/06 03:07:11;;;;;;;0.10;0.10;;;0.00;99.90;;;;;;5047390;28;20070;-81
2022/12/06 03:09:42;;;;;;;0.32;0.32;;;-0.10;99.90;;;;;;5046712;28;20037;-80
2022/12/06 03:12:26;;;;;;;0.10;0.10;;;-0.10;99.90;;;;;;5050827;28;20799;-81
2022/12/06 03:14:55;;;;;;;0.10;0.10;;;-0.10;99.90;;;;;;5059620;28;20036;-79
2022/12/06 03:17:40;;;;;;;0.10;0.10;;;-0.10;99.90;;;;;;5067435;28;20028;-80
2022/12/06 03:20:26;;;;;;;1.13;0.57;;;-0.20;99.90;;;;;;5051180;28;20391;-80
2022/12/06 03:23:03;;;;;;;0.15;0.15;;;-0.20;99.90;;;;;;5050555;28;20407;-80
2022/12/06 03:25:32;;;;;;;0.10;0.10;;;-0.20;99.90;;;;;;5066708;28;20036;-80
2022/12/06 03:28:02;;;;;;;0.10;0.10;;;-0.10;99.90;;;;;;5068787;28;20573;-80
2022/12/06 03:30:31;;;;;;;0.15;0.15;;;-0.30;99.90;;;;;;5068476;28;20036;-78
2022/12/06 03:32:58;;;;;;;0.30;0.30;;;-0.30;99.90;;;;;;5063420;28;20029;-79
2022/12/06 03:35:28;;;;;;;0.28;0.28;;;-0.20;99.90;;;;;;5068783;28;20063;-80
2022/12/06 03:38:00;;;;;;;0.30;0.30;;;-0.40;99.90;;;;;;5069343;28;20024;-80
2022/12/06 03:40:30;;;;;;;0.10;0.10;;;-0.20;99.90;;;;;;5050563;28;20058;-80
2022/12/06 03:42:57;;;;;;;0.63;0.47;;;-0.30;99.90;;;;;;5051162;28;20028;-80
2022/12/06 03:45:28;;;;;;;0.10;0.10;;;-0.30;99.90;;;;;;5050766;28;20028;-81
2022/12/06 03:48:20;;;;;;;0.10;0.10;;;-0.30;99.90;;;;;;5069661;28;20614;-81
2022/12/06 03:51:09;;;;;;;0.10;0.10;;;-0.30;99.90;;;;;;5068399;28;20036;-80
2022/12/06 03:53:43;;;;;;;0.65;0.60;;;-0.30;99.90;;;;;;5068755;28;20029;-81
2022/12/06 03:56:08;;;;;;;0.20;0.20;;;-0.40;99.90;;;;;;5051125;28;20055;-80
2022/12/06 03:58:34;;;;;;;0.10;0.10;;;-0.40;99.90;;;;;;5050734;28;20025;-80
2022/12/06 04:01:03;;;;;;;0.10;0.10;;;-0.40;99.90;;;;;;5068725;28;20047;-79
2022/12/06 04:03:29;;;;;;;0.10;0.10;;;-0.40;99.90;;;;;;5051005;28;20054;-79
2022/12/06 04:05:55;;;;;;;0.10;0.10;;;-0.40;99.90;;;;;;5069760;28;20059;-79
2022/12/06 04:08:20;;;;;;;6.82;0.80;;;-0.40;99.90;;;;;;5072987;28;20032;-79
2022/12/06 04:10:46;;;;;;;0.40;0.40;;;-0.40;99.90;;;;;;5067899;28;20078;-79
2022/12/06 04:13:12;;;;;;;1.05;1.05;;;-0.40;99.90;;;;;;5050044;28;20047;-78
2022/12/06 04:15:38;;;;;;;0.20;0.20;;;-0.40;99.90;;;;;;5068564;28;20681;-77
2022/12/06 04:18:13;;;;;;;0.30;0.30;;;-0.40;99.90;;;;;;5068067;28;20028;-78
2022/12/06 04:23:42;;;;;;;0.10;0.10;;;-0.40;99.90;;;;;;5068375;28;20102;-80
2022/12/06 04:26:11;;;;;;;0.10;0.10;;;-0.40;99.90;;;;;;5042189;28;20493;-79
2022/12/06 04:39:35;;;;;;;0.10;0.10;;;-0.40;99.90;;;;;;5067493;28;20098;-78
2022/12/06 04:44:46;;;;;;;0.10;0.10;;;-0.40;99.90;;;;;;5066687;28;20527;-80
2022/12/06 04:47:11;;;;;;;0.03;0.03;;;-0.50;99.90;;;;;;5067178;28;20028;-77
2022/12/06 04:49:37;;;;;;;0.10;0.10;;;-0.50;99.90;;;;;;5067541;28;20562;-77
2022/12/06 04:52:07;;;;;;;0.10;0.10;;;-0.50;99.90;;;;;;5049770;28;20037;-78
2022/12/06 04:54:33;;;;;;;0.63;0.63;;;-0.40;99.90;;;;;;5066275;28;20036;-77
2022/12/06 04:57:00;;;;;;;0.10;0.10;;;-0.40;99.90;;;;;;5048383;28;20661;-79
2022/12/06 04:59:26;;;;;;;0.60;0.43;;;-0.40;99.90;;;;;;5066737;28;20024;-79
2022/12/06 05:01:52;;;;;;;0.17;0.17;;;-0.60;99.90;;;;;;5049287;28;20032;-79
2022/12/06 05:04:18;;;;;;;0.20;0.20;;;-0.50;99.90;;;;;;5067054;28;20955;-79
2022/12/06 05:06:44;;;;;;;0.10;0.10;;;-0.50;99.90;;;;;;5075081;28;20032;-80
2022/12/06 05:09:10;;;;;;;0.30;0.30;;;-0.30;99.90;;;;;;5066149;28;20093;-79
2022/12/06 05:11:36;;;;;;;0.10;0.10;;;-0.30;99.90;;;;;;5050051;28;20036;-79
2022/12/06 05:14:02;;;;;;;0.20;0.20;;;-0.40;99.90;;;;;;5067416;28;20499;-79
2022/12/06 05:16:28;;;;;;;0.20;0.20;;;-0.30;99.90;;;;;;5049932;28;20036;-79
2022/12/06 05:18:54;;;;;;;0.15;0.15;;;-0.40;99.90;;;;;;5067655;28;20776;-79
2022/12/06 05:21:22;;;;;;;0.10;0.10;;;-0.40;99.90;;;;;;5067732;28;20054;-79
2022/12/06 05:23:49;;;;;;;0.10;0.10;;;-0.30;99.90;;;;;;5050083;28;20086;-79
2022/12/06 05:26:17;;;;;;;1.88;0.47;;;-0.40;99.90;;;;;;5067453;28;20036;-81
2022/12/06 05:28:44;;;;;;;0.40;0.40;;;-0.40;99.90;;;;;;5067496;28;20032;-80
2022/12/06 05:31:10;;;;;;;0.15;0.15;;;-0.30;99.90;;;;;;5067971;28;20083;-82
2022/12/06 05:33:37;;;;;;;0.10;0.10;;;-0.30;99.90;;;;;;5067493;28;20036;-79
2022/12/06 05:36:07;;;;;;;0.10;0.10;;;-0.30;99.90;;;;;;5049733;28;20025;-79
2022/12/06 05:38:33;;;;;;;0.15;0.15;;;-0.30;99.90;;;;;;5050280;28;20078;-80
2022/12/06 05:41:02;;;;;;;0.23;0.23;;;-0.30;99.90;;;;;;5067480;28;20372;-81
2022/12/06 05:43:29;;;;;;;2.08;1.10;;;-0.20;99.90;;;;;;5067811;28;20031;-80
2022/12/06 05:45:55;;;;;;;0.10;0.10;;;-0.40;99.90;;;;;;5067631;28;20190;-77
2022/12/06 05:48:21;;;;;;;1.88;1.10;;;-0.40;99.90;;;;;;5067963;28;20082;-83
2022/12/06 05:50:48;;;;;;;0.10;0.10;;;-0.30;99.90;;;;;;5067536;28;20036;-81
2022/12/06 05:53:14;;;;;;;0.90;0.90;;;-0.30;99.90;;;;;;5067745;28;20024;-82
2022/12/06 05:55:41;;;;;;;2.10;1.65;;;-0.50;99.90;;;;;;5067448;28;20130;-78
2022/12/06 05:58:07;;;;;;;0.13;0.13;;;-0.50;99.90;;;;;;5066932;28;20043;-81
2022/12/06 06:00:33;;;;;;;1.45;0.63;;;-0.40;99.90;;;;;;5050125;28;20033;-83
2022/12/06 06:02:59;;;;;;;0.30;0.30;;;-0.30;99.90;;;;;;5069573;28;20119;-80
2022/12/06 06:05:24;;;;;;;0.50;0.50;;;-0.40;99.90;;;;;;5066614;28;20080;-80
2022/12/06 06:07:50;;;;;;;0.10;0.10;;;-0.40;99.90;;;;;;5071277;28;20040;-81
2022/12/06 06:10:16;;;;;;;0.10;0.10;;;-0.40;99.90;;;;;;5052344;28;20033;-79
2022/12/06 06:12:43;;;;;;;0.10;0.10;;;-0.40;99.90;;;;;;5071103;28;20109;-80
2022/12/06 06:15:10;;;;;;;0.30;0.25;;;-0.50;99.90;;;;;;5070841;28;20104;-79
2022/12/06 06:17:37;;;;;;;0.40;0.40;;;-0.50;99.90;;;;;;5062992;28;20811;-77
2022/12/06 06:20:04;;;;;;;0.30;0.30;;;-0.60;99.90;;;;;;5067819;28;20027;-78
2022/12/06 06:22:35;;;;;;;0.20;0.20;;;-0.60;99.90;;;;;;5071033;28;20163;-78
2022/12/06 06:25:01;;;;;;;2.90;0.65;;;-0.70;99.90;;;;;;5063235;28;20021;-78
2022/12/06 06:27:30;;;;;;;0.10;0.10;;;-0.70;99.90;;;;;;5058955;28;20036;-80
2022/12/06 06:29:56;;;;;;;0.10;0.10;;;-0.80;99.90;;;;;;5060585;28;20025;-81
2022/12/06 06:32:22;;;;;;;0.17;0.17;;;-0.80;99.90;;;;;;5049731;28;20151;-81
2022/12/06 06:34:48;;;;;;;3.95;0.63;;;-0.70;99.90;;;;;;5060083;28;20589;-81
2022/12/06 06:37:13;;;;;;;0.40;0.40;;;-0.80;99.90;;;;;;5058218;28;20021;-81
2022/12/06 06:39:39;;;;;;;0.13;0.13;;;-0.80;99.90;;;;;;5065721;28;20554;-81
2022/12/06 06:42:05;;;;;;;0.50;0.50;;;-0.80;99.90;;;;;;5049097;28;20032;-83
2022/12/06 06:44:31;;;;;;;0.10;0.10;;;-0.80;99.90;;;;;;5059597;28;20097;-83
2022/12/06 06:46:57;;;;;;;0.20;0.20;;;-0.80;99.90;;;;;;5051013;28;20028;-85
2022/12/06 06:49:23;;;;;;;0.38;0.38;;;-0.80;99.90;;;;;;5074463;28;20040;-82
2022/12/06 06:51:49;;;;;;;0.10;0.10;;;-0.70;99.90;;;;;;5050899;28;20029;-81
2022/12/06 06:54:15;;;;;;;0.20;0.20;;;-0.90;99.90;;;;;;5052196;28;20021;-81
2022/12/06 06:56:41;;;;;;;0.10;0.10;;;-0.70;99.90;;;;;;5069477;28;20064;-80
2022/12/06 06:59:07;;;;;;;0.38;0.38;;;-0.70;99.90;;;;;;5070122;28;20387;-83
2022/12/06 07:01:33;;;;;;;0.30;0.30;;;-0.60;99.90;;;;;;5068889;28;20094;-80
2022/12/06 07:03:58;;;;;;;0.88;0.40;;;-0.60;99.90;;;;;;5070019;28;20031;-80
2022/12/06 07:06:24;;;;;;;0.40;0.40;;;-0.70;99.90;;;;;;5075011;28;20139;-85
2022/12/06 07:08:50;;;;;;;0.17;0.17;;;-0.70;99.90;;;;;;5054036;28;20037;-85
2022/12/06 07:11:16;;;;;;;0.10;0.10;;;-0.70;99.90;;;;;;5070638;28;20035;-86
2022/12/06 07:13:43;;;;;;;0.17;0.17;;;-0.80;99.90;;;;;;5052331;28;20029;-82
2022/12/06 07:16:14;;;;;;;0.20;0.20;;;-0.70;99.90;;;;;;5070505;28;20373;-82
2022/12/06 07:18:40;;;;;;;0.17;0.17;;;-0.80;99.90;;;;;;5067685;28;20085;-82
2022/12/06 07:21:09;;;;;;;0.13;0.13;;;-0.70;99.90;;;;;;5069860;28;20032;-81
2022/12/06 07:23:36;;;;;;;0.10;0.10;;;-0.70;99.90;;;;;;5070797;28;20028;-82
2022/12/06 07:26:18;;;;;;;0.10;0.10;;;-0.70;99.90;;;;;;5070501;28;20052;-81
2022/12/06 07:28:46;;;;;;;0.30;0.30;;;-0.70;99.90;;;;;;5070081;28;20044;-82
2022/12/06 07:31:14;;;;;;;5.38;2.17;;;-0.70;99.90;;;;;;5052761;28;20032;-81
2022/12/06 07:33:41;;;;;;;0.10;0.10;;;-0.70;99.90;;;;;;5051943;28;20072;-76
2022/12/06 07:36:08;;;;;;;0.35;0.35;;;-0.50;99.90;;;;;;5070231;28;20044;-74
2022/12/06 07:38:34;;;;;;;0.10;0.10;;;-0.40;99.90;;;;;;5062186;28;20028;-74
2022/12/06 07:44:59;;;;;;;1.35;0.50;;;-0.40;99.90;;;;;;5050988;28;20092;-74
2022/12/06 07:46:33;;;;;;;0.20;0.20;;;-0.30;99.90;;;;;;5066316;28;20147;-81
2022/12/06 07:48:59;;;;;;;0.10;0.10;;;0.10;99.90;;;;;;5067792;28;20033;-82
2022/12/06 07:51:24;;;;;;;0.80;0.80;;;0.70;99.90;;;;;;5050364;28;20044;-82
2022/12/06 07:53:50;;;;;;;0.80;0.80;;;0.90;99.90;;;;;;5068344;28;20886;-82
2022/12/06 07:56:16;;;;;;;2.17;1.05;;;1.10;99.90;;;;;;5069133;28;20818;-82
2022/12/06 07:58:41;;;;;;;0.10;0.10;;;1.30;99.90;;;;;;5069100;28;20024;-82
2022/12/06 08:01:07;;;;;;;0.17;0.17;;;1.40;99.90;;;;;;5068966;28;20095;-81
2022/12/06 08:03:33;;;;;;;0.20;0.20;;;1.50;99.90;;;;;;5068819;28;20104;-81
2022/12/06 08:05:58;;;;;;;0.38;0.38;;;1.60;99.90;;;;;;5070605;28;20056;-82
2022/12/06 08:08:24;;;;;;;0.10;0.10;;;1.60;99.90;;;;;;5052617;28;20704;-81
2022/12/06 08:10:50;;;;;;;0.10;0.10;;;1.70;99.90;;;;;;5050893;28;20044;-81
2022/12/06 08:13:16;;;;;;;0.13;0.13;;;1.80;99.90;;;;;;5068585;28;20466;-82
2022/12/06 08:15:41;;;;;;;0.10;0.10;;;1.80;99.90;;;;;;5068150;28;20021;-81
2022/12/06 08:18:07;;;;;;;4.75;0.45;;;1.80;99.90;;;;;;5050735;28;20058;-81
2022/12/06 08:20:33;;;;;;;0.10;0.10;;;1.80;99.90;;;;;;5050320;28;20024;-81
2022/12/06 08:22:58;;;;;;;0.30;0.30;;;1.90;99.90;;;;;;5050468;28;20098;-81
2022/12/06 08:25:24;;;;;;;0.40;0.40;;;2.00;99.90;;;;;;5067711;28;20039;-82
2022/12/06 08:27:50;;;;;;;0.10;0.10;;;2.10;99.90;;;;;;5050101;28;20780;-81
2022/12/06 08:30:15;;;;;;;0.35;0.25;;;2.00;99.90;;;;;;5050267;28;20025;-81
2022/12/06 08:32:41;;;;;;;0.10;0.10;;;2.00;99.90;;;;;;5050472;28;20091;-82
2022/12/06 08:35:07;;;;;;;0.45;0.45;;;2.10;99.90;;;;;;5068227;28;20036;-81
2022/12/06 08:37:33;;;;;;;0.10;0.10;;;2.10;99.90;;;;;;5068373;28;20439;-81
2022/12/06 08:39:59;;;;;;;0.10;0.10;;;2.20;99.90;;;;;;5050244;28;20795;-81
2022/12/06 08:42:25;;;;;;;0.10;0.10;;;2.40;99.90;;;;;;5050158;28;20040;-81
2022/12/06 08:44:53;;;;;;;4.78;0.75;;;2.40;99.90;;;;;;5049979;28;20111;-82
2022/12/06 08:47:19;;;;;;;1.73;1.63;;;2.40;99.90;;;;;;5049906;28;20032;-81
2022/12/06 08:49:44;;;;;;;0.50;0.50;;;2.40;99.90;;;;;;5068180;28;20035;-81
2022/12/06 08:52:10;;;;;;;0.10;0.10;;;2.60;99.90;;;;;;5065798;28;20033;-81
2022/12/06 08:54:37;;;;;;;0.10;0.10;;;2.60;99.90;;;;;;5067683;28;20031;-82
2022/12/06 08:57:03;;;;;;;0.10;0.10;;;2.70;99.90;;;;;;5063423;28;20036;-83
2022/12/06 08:59:29;;;;;;;0.15;0.15;;;2.90;99.90;;;;;;5068504;28;20028;-82
2022/12/06 09:01:55;;;;;;;0.20;0.20;;;2.90;99.90;;;;;;5047374;28;20028;-81
2022/12/06 09:04:21;;;;;;;0.20;0.20;;;3.00;99.90;;;;;;5068226;28;20099;-83
2022/12/06 09:06:47;;;;;;;0.10;0.10;;;3.00;99.90;;;;;;5048782;28;20036;-82
2022/12/06 09:09:15;;;;;;;0.20;0.20;;;3.00;99.90;;;;;;5048153;28;20030;-83
2022/12/06 09:11:42;;;;;;;0.40;0.40;;;3.00;99.90;;;;;;5049316;28;20447;-82
2022/12/06 09:14:09;;;;;;;0.10;0.10;;;3.10;99.90;;;;;;5041547;28;20033;-83
2022/12/06 09:16:35;;;;;;;0.47;0.47;;;3.20;99.90;;;;;;5046487;28;20901;-83
2022/12/06 09:19:01;;;;;;;0.10;0.10;;;3.30;99.90;;;;;;5065462;28;20024;-83
2022/12/06 09:21:31;;;;;;;0.10;0.10;;;3.40;99.90;;;;;;5047191;28;20039;-83
2022/12/06 09:23:58;;;;;;;0.28;0.28;;;3.40;99.90;;;;;;5066256;28;20028;-84
2022/12/06 09:26:24;;;;;;;0.17;0.17;;;3.50;99.90;;;;;;5046673;28;20092;-83
2022/12/06 09:28:52;;;;;;;0.30;0.30;;;3.50;99.90;;;;;;5065717;28;20396;-84
2022/12/06 09:31:18;;;;;;;0.43;0.43;;;3.50;99.90;;;;;;5066726;28;20021;-84
2022/12/06 09:33:45;;;;;;;0.30;0.30;;;3.50;99.90;;;;;;5048710;28;20109;-83
2022/12/06 09:36:20;;;;;;;0.10;0.10;;;3.60;99.90;;;;;;5050081;28;20035;-83
2022/12/06 09:38:49;;;;;;;5.30;0.82;;;3.70;99.90;;;;;;5067852;28;20044;-83
2022/12/06 09:41:53;;;;;;;0.35;0.35;;;3.90;99.90;;;;;;5071457;28;20021;-84
2022/12/06 09:44:30;;;;;;;0.10;0.10;;;4.10;99.90;;;;;;5070785;28;20020;-83
2022/12/06 09:47:11;;;;;;;2.13;1.35;;;4.30;99.90;;;;;;5070893;28;20131;-82
2022/12/06 09:49:52;;;;;;;0.10;0.10;;;4.40;99.90;;;;;;5050323;28;20029;-82
2022/12/06 09:52:25;;;;;;;0.20;0.20;;;4.30;99.90;;;;;;5053749;28;20529;-82
2022/12/06 09:55:15;;;;;;;0.10;0.10;;;4.30;99.90;;;;;;5061556;28;20025;-82
2022/12/06 09:58:08;;;;;;;0.75;0.70;;;4.50;99.90;;;;;;5067451;28;20112;-82
2022/12/06 10:00:47;;;;;;;0.38;0.38;;;4.50;99.90;;;;;;5071315;28;20029;-82
2022/12/06 10:03:34;;;;;;;0.10;0.10;;;4.70;99.90;;;;;;5048826;28;20108;-82
2022/12/06 10:06:01;;;;;;;;;;;4.70;99.90;;;;;;5069925;28;20056;-82
2022/12/06 10:08:55;;;;;;;0.10;0.10;;;4.70;99.90;;;;;;5053864;28;19918;-81
2022/12/06 10:11:30;;;;;;;0.40;0.40;;;4.70;99.90;;;;;;5046213;28;20119;-81
2022/12/06 10:14:11;;;;;;;0.10;0.10;;;4.70;99.90;;;;;;5068961;28;20024;-82
2022/12/06 10:16:48;;;;;;;0.52;0.52;;;4.60;99.90;;;;;;5049562;28;20033;-82
2022/12/06 10:19:42;;;;;;;0.13;0.13;;;4.60;99.90;;;;;;5071374;28;20052;-82
2022/12/06 10:22:07;;;;;;;0.70;0.70;;;4.80;99.90;;;;;;5068876;28;20037;-81
2022/12/06 10:24:55;;;;;;;0.32;0.32;;;4.80;99.90;;;;;;5048296;28;20050;-82
2022/12/06 10:27:37;;;;;;;0.20;0.20;;;4.80;99.90;;;;;;5052863;28;20086;-82
2022/12/06 10:30:09;;;;;;;0.13;0.13;;;4.80;99.90;;;;;;5049827;28;20032;-82
2022/12/06 10:32:50;;;;;;;0.17;0.17;;;4.80;99.90;;;;;;5049468;28;20143;-82
2022/12/06 10:35:18;;;;;;;0.38;0.38;;;4.70;99.90;;;;;;5045844;28;20055;-81
2022/12/06 10:38:23;;;;;;;0.10;0.10;;;4.80;99.90;;;;;;5067235;28;20073;-82
2022/12/06 10:41:08;;;;;;;0.30;0.30;;;4.70;99.90;;;;;;5066781;28;20037;-82
2022/12/06 10:43:43;;;;;;;0.10;0.10;;;4.80;99.90;;;;;;5065099;28;20028;-82
2022/12/06 10:49:11;;;;;;;0.40;0.40;;;5.00;99.90;;;;;;5067434;28;20103;-82
2022/12/06 10:51:48;;;;;;;0.20;0.20;;;5.10;99.90;;;;;;5067743;28;20037;-81
2022/12/06 10:54:25;;;;;;;0.28;0.28;;;5.10;99.90;;;;;;5069586;28;20028;-83
2022/12/06 10:56:54;;;;;;;0.10;0.10;;;5.10;99.90;;;;;;5069991;28;20031;-83
2022/12/06 10:59:32;;;;;;;1.48;0.30;;;5.30;99.90;;;;;;5058576;28;20110;-83
2022/12/06 11:02:13;;;;;;;0.10;0.10;;;5.30;99.90;;;;;;5068446;28;20021;-82
2022/12/06 11:04:42;;;;;;;0.20;0.20;;;5.20;99.90;;;;;;5070358;28;20056;-82
2022/12/06 11:07:19;;;;;;;0.10;0.10;;;5.20;99.90;;;;;;5067144;28;20031;-82
2022/12/06 11:09:50;;;;;;;0.38;0.38;;;5.20;99.90;;;;;;5052113;28;20029;-81
2022/12/06 11:12:19;;;;;;;0.10;0.10;;;5.20;99.90;;;;;;5048530;28;20033;-82
2022/12/06 11:14:50;;;;;;;0.20;0.20;;;5.10;99.90;;;;;;5067151;28;20056;-82
2022/12/06 11:17:38;;;;;;;0.43;0.43;;;5.20;99.90;;;;;;5047503;28;20021;-82
2022/12/06 11:20:27;;;;;;;0.30;0.30;;;5.20;99.90;;;;;;5049805;28;20024;-82
2022/12/06 11:23:05;;;;;;;0.10;0.10;;;5.20;99.90;;;;;;5067105;28;20822;-82
2022/12/06 11:25:37;;;;;;;0.10;0.10;;;5.40;99.90;;;;;;5049586;28;20035;-82
2022/12/06 11:28:20;;;;;;;0.10;0.10;;;5.40;99.90;;;;;;5047727;28;20116;-82
2022/12/06 11:30:46;;;;;;;0.10;0.10;;;5.40;99.90;;;;;;5064155;28;20028;-82
2022/12/06 11:33:12;;;;;;;0.10;0.10;;;5.50;99.90;;;;;;5066588;28;20112;-82
2022/12/06 11:35:39;;;;;;;0.20;0.20;;;5.50;99.90;;;;;;5049079;28;20047;-84
2022/12/06 11:38:06;;;;;;;0.57;0.57;;;5.60;99.90;;;;;;5051567;28;20263;-82
2022/12/06 11:40:36;;;;;;;0.10;0.10;;;5.60;99.90;;;;;;5064296;28;20040;-82
2022/12/06 11:43:07;;;;;;;0.10;0.10;;;5.60;99.90;;;;;;5066438;28;20057;-82
2022/12/06 11:45:37;;;;;;;0.10;0.10;;;5.70;99.90;;;;;;5068574;28;20107;-82
2022/12/06 11:48:22;;;;;;;0.45;0.45;;;5.70;99.90;;;;;;5066749;28;20122;-82
2022/12/06 11:50:49;;;;;;;0.20;0.20;;;5.70;99.90;;;;;;5067093;28;20032;-81
2022/12/06 11:53:26;;;;;;;0.50;0.50;;;5.70;99.90;;;;;;5065577;28;20028;-82
2022/12/06 11:56:02;;;;;;;0.30;0.30;;;5.80;99.90;;;;;;5049402;28;20562;-82
2022/12/06 11:58:37;;;;;;;0.20;0.20;;;5.90;99.90;;;;;;5066992;28;20024;-82
2022/12/06 12:01:13;;;;;;;0.10;0.10;;;5.90;99.80;;;;;;5042648;28;20052;-83
2022/12/06 12:03:41;;;;;;;2.08;1.45;;;5.90;99.40;;;;;;5048875;28;20590;-82
2022/12/06 12:06:19;;;;;;;1.65;1.17;;;6.00;99.90;;;;;;5069138;28;20060;-82
2022/12/06 12:09:17;;;;;;;0.93;0.55;;;6.00;99.30;;;;;;5066930;28;20029;-82
2022/12/06 12:11:43;;;;;;;0.10;0.10;;;6.10;99.90;;;;;;5045389;28;20160;-82
2022/12/06 12:14:26;;;;;;;0.10;0.10;;;6.10;99.90;;;;;;5050796;28;20087;-82
2022/12/06 12:17:00;;;;;;;1.13;0.77;;;6.20;99.80;;;;;;5048094;28;20025;-83
2022/12/06 12:19:39;;;;;;;0.45;0.45;;;6.20;99.90;;;;;;5069071;28;20082;-82
2022/12/06 12:22:28;;;;;;;0.20;0.20;;;6.30;99.90;;;;;;5049438;28;20027;-82
2022/12/06 12:25:01;;;;;;;0.30;0.30;;;6.30;99.90;;;;;;5048133;28;20117;-83
2022/12/06 12:27:38;;;;;;;0.30;0.30;;;6.40;99.90;;;;;;5047668;28;20036;-83
2022/12/06 12:30:24;;;;;;;0.10;0.10;;;6.40;99.20;;;;;;5060685;28;20036;-82
2022/12/06 12:33:04;;;;;;;0.40;0.40;;;6.50;99.90;;;;;;5041995;28;20032;-82
2022/12/06 12:35:30;;;;;;;0.10;0.10;;;6.50;99.90;;;;;;5045713;28;20039;-82
2022/12/06 12:38:35;;;;;;;1.38;0.82;;;6.50;99.90;;;;;;5050236;28;20626;-82
2022/12/06 12:41:23;;;;;;;0.20;0.20;;;6.50;99.90;;;;;;5059500;28;20865;-83
2022/12/06 12:44:18;;;;;;;0.10;0.10;;;6.60;99.90;;;;;;5047985;28;20035;-83
2022/12/06 12:46:47;;;;;;;0.15;0.15;;;6.60;98.90;;;;;;5043946;28;20044;-82
2022/12/06 12:49:31;;;;;;;0.43;0.43;;;6.70;99.90;;;;;;5047517;28;20029;-82
2022/12/06 12:51:58;;;;;;;0.30;0.30;;;6.60;98.30;;;;;;5044633;28;20564;-83
2022/12/06 12:54:31;;;;;;;;;;;6.60;98.30;;;;;;5062991;28;20059;-82
2022/12/06 12:56:59;;;;;;;0.10;0.10;;;6.50;98.40;;;;;;5047243;28;19995;-82
2022/12/06 12:59:27;;;;;;;1.45;0.85;;;6.50;96.60;;;;;;5047371;28;20025;-82
2022/12/06 13:02:00;;;;;;;0.10;0.10;;;6.50;95.10;;;;;;5068009;28;20024;-83
2022/12/06 13:04:25;;;;;;;0.10;0.10;;;6.70;93.20;;;;;;5050011;28;20622;-82
2022/12/06 13:07:00;;;;;;;0.10;0.10;;;6.80;94.60;;;;;;5067577;28;20127;-83
2022/12/06 13:09:37;;;;;;;0.30;0.20;;;6.50;93.80;;;;;;5050266;28;20032;-83
2022/12/06 13:12:30;;;;;;;0.10;0.10;;;6.40;93.30;;;;;;5051983;28;20032;-82
2022/12/06 13:15:05;;;;;;;0.10;0.10;;;6.40;92.80;;;;;;5038032;28;20044;-82
2022/12/06 13:17:34;;;;;;;0.10;0.10;;;6.40;93.30;;;;;;5046065;28;20033;-82
2022/12/06 13:20:20;;;;;;;0.10;0.10;;;6.30;94.30;;;;;;5055203;28;20032;-82
2022/12/06 13:22:50;;;;;;;0.20;0.20;;;6.30;93.00;;;;;;5072162;28;20563;-82
2022/12/06 13:25:16;;;;;;;0.20;0.20;;;6.40;92.70;;;;;;5067409;28;20454;-81
2022/12/06 13:27:44;;;;;;;0.35;0.35;;;6.60;90.30;;;;;;5053677;28;20029;-82
2022/12/06 13:30:25;;;;;;;0.30;0.30;;;6.60;88.90;;;;;;5049680;28;20029;-82
2022/12/06 13:33:21;;;;;;;0.10;0.10;;;6.80;84.80;;;;;;5043710;28;20032;-82
2022/12/06 13:35:58;;;;;;;0.10;0.10;;;7.00;83.40;;;;;;5070344;28;20028;-82
2022/12/06 13:38:33;;;;;;;0.10;0.10;;;6.90;85.10;;;;;;5050662;28;20029;-82